sensor_id;sensor_type;location;lat;lon;timestamp;P1;durP1;ratioP1;P2;durP2;ratioP2
60979;SDS011;46851;49.160;8.980;2024-02-04T00:00:06;3.03;;;2.10;;
60979;SDS011;46851;49.160;8.980;2024-02-04T00:02:32;3.60;;;2.25;;
60979;SDS011;46851;49.160;8.980;2024-02-04T00:04:58;2.20;;;2.00;;
60979;SDS011;46851;49.160;8.980;2024-02-04T00:07:24;3.72;;;2.22;;
60979;SDS011;46851;49.160;8.980;2024-02-04T00:09:50;3.30;;;2.45;;
60979;SDS011;46851;49.160;8.980;2024-02-04T00:12:16;3.58;;;2.58;;
60979;SDS011;46851;49.160;8.980;2024-02-04T00:14:42;3.80;;;2.42;;
60979;SDS011;46851;49.160;8.980;2024-02-04T00:17:08;5.53;;;2.60;;
60979;SDS011;46851;49.160;8.980;2024-02-04T00:19:34;3.25;;;2.40;;
60979;SDS011;46851;49.160;8.980;2024-02-04T00:22:00;3.47;;;2.25;;
60979;SDS011;46851;49.160;8.980;2024-02-04T00:24:26;2.88;;;2.05;;
60979;SDS011;46851;49.160;8.980;2024-02-04T00:26:52;3.20;;;2.17;;
60979;SDS011;46851;49.160;8.980;2024-02-04T00:29:18;3.58;;;2.38;;
60979;SDS011;46851;49.160;8.980;2024-02-04T00:31:44;4.25;;;2.40;;
60979;SDS011;46851;49.160;8.980;2024-02-04T00:34:10;3.70;;;2.42;;
60979;SDS011;46851;49.160;8.980;2024-02-04T00:36:36;3.08;;;2.20;;
60979;SDS011;46851;49.160;8.980;2024-02-04T00:39:02;3.47;;;2.10;;
60979;SDS011;46851;49.160;8.980;2024-02-04T00:41:28;3.72;;;2.45;;
60979;SDS011;46851;49.160;8.980;2024-02-04T00:43:55;5.05;;;2.60;;
60979;SDS011;46851;49.160;8.980;2024-02-04T00:46:21;4.50;;;2.45;;
60979;SDS011;46851;49.160;8.980;2024-02-04T00:48:46;4.53;;;2.53;;
60979;SDS011;46851;49.160;8.980;2024-02-04T00:51:12;3.35;;;2.17;;
60979;SDS011;46851;49.160;8.980;2024-02-04T00:53:42;3.47;;;2.40;;
60979;SDS011;46851;49.160;8.980;2024-02-04T01:04:33;3.17;;;2.30;;
60979;SDS011;46851;49.160;8.980;2024-02-04T01:09:29;3.17;;;2.03;;
60979;SDS011;46851;49.160;8.980;2024-02-04T01:11:55;2.70;;;1.95;;
60979;SDS011;46851;49.160;8.980;2024-02-04T01:14:21;5.65;;;2.53;;
60979;SDS011;46851;49.160;8.980;2024-02-04T01:16:47;2.83;;;2.22;;
60979;SDS011;46851;49.160;8.980;2024-02-04T01:19:13;2.53;;;2.10;;
60979;SDS011;46851;49.160;8.980;2024-02-04T01:21:39;2.67;;;1.88;;
60979;SDS011;46851;49.160;8.980;2024-02-04T01:24:05;2.88;;;2.03;;
60979;SDS011;46851;49.160;8.980;2024-02-04T01:26:31;2.50;;;1.67;;
60979;SDS011;46851;49.160;8.980;2024-02-04T01:28:57;3.35;;;1.80;;
60979;SDS011;46851;49.160;8.980;2024-02-04T01:31:23;2.58;;;1.77;;
60979;SDS011;46851;49.160;8.980;2024-02-04T01:33:49;1.77;;;1.60;;
60979;SDS011;46851;49.160;8.980;2024-02-04T01:36:15;2.05;;;1.50;;
60979;SDS011;46851;49.160;8.980;2024-02-04T01:38:41;1.70;;;1.60;;
60979;SDS011;46851;49.160;8.980;2024-02-04T01:41:07;1.42;;;1.30;;
60979;SDS011;46851;49.160;8.980;2024-02-04T01:43:33;3.08;;;1.40;;
60979;SDS011;46851;49.160;8.980;2024-02-04T01:45:59;2.00;;;1.60;;
60979;SDS011;46851;49.160;8.980;2024-02-04T01:48:25;2.78;;;1.50;;
60979;SDS011;46851;49.160;8.980;2024-02-04T01:50:52;1.80;;;1.40;;
60979;SDS011;46851;49.160;8.980;2024-02-04T01:53:19;2.80;;;1.25;;
60979;SDS011;46851;49.160;8.980;2024-02-04T01:55:46;1.63;;;1.10;;
60979;SDS011;46851;49.160;8.980;2024-02-04T01:58:14;3.35;;;1.40;;
60979;SDS011;46851;49.160;8.980;2024-02-04T02:00:40;4.15;;;1.55;;
60979;SDS011;46851;49.160;8.980;2024-02-04T02:03:06;1.92;;;1.25;;
60979;SDS011;46851;49.160;8.980;2024-02-04T02:05:33;2.45;;;1.33;;
60979;SDS011;46851;49.160;8.980;2024-02-04T02:07:59;1.95;;;1.35;;
60979;SDS011;46851;49.160;8.980;2024-02-04T02:10:25;3.08;;;1.45;;
60979;SDS011;46851;49.160;8.980;2024-02-04T02:13:01;2.10;;;1.27;;
60979;SDS011;46851;49.160;8.980;2024-02-04T02:15:30;1.63;;;1.20;;
60979;SDS011;46851;49.160;8.980;2024-02-04T02:17:59;1.40;;;1.20;;
60979;SDS011;46851;49.160;8.980;2024-02-04T02:23:14;1.55;;;1.20;;
60979;SDS011;46851;49.160;8.980;2024-02-04T02:25:41;1.48;;;1.35;;
60979;SDS011;46851;49.160;8.980;2024-02-04T02:28:08;2.55;;;1.55;;
60979;SDS011;46851;49.160;8.980;2024-02-04T02:30:34;1.58;;;1.48;;
60979;SDS011;46851;49.160;8.980;2024-02-04T02:33:00;3.10;;;1.60;;
60979;SDS011;46851;49.160;8.980;2024-02-04T02:35:26;2.50;;;1.27;;
60979;SDS011;46851;49.160;8.980;2024-02-04T02:38:07;1.83;;;1.35;;
60979;SDS011;46851;49.160;8.980;2024-02-04T02:40:45;1.58;;;1.08;;
60979;SDS011;46851;49.160;8.980;2024-02-04T02:43:11;1.15;;;1.05;;
60979;SDS011;46851;49.160;8.980;2024-02-04T02:45:39;2.42;;;1.27;;
60979;SDS011;46851;49.160;8.980;2024-02-04T02:48:07;1.65;;;1.27;;
60979;SDS011;46851;49.160;8.980;2024-02-04T02:50:34;1.70;;;1.50;;
60979;SDS011;46851;49.160;8.980;2024-02-04T02:53:00;1.90;;;1.13;;
60979;SDS011;46851;49.160;8.980;2024-02-04T02:55:26;2.60;;;1.38;;
60979;SDS011;46851;49.160;8.980;2024-02-04T02:57:52;1.48;;;1.15;;
60979;SDS011;46851;49.160;8.980;2024-02-04T03:00:18;1.40;;;1.23;;
60979;SDS011;46851;49.160;8.980;2024-02-04T03:02:44;1.55;;;1.35;;
60979;SDS011;46851;49.160;8.980;2024-02-04T03:05:11;1.35;;;1.13;;
60979;SDS011;46851;49.160;8.980;2024-02-04T03:07:37;1.40;;;1.30;;
60979;SDS011;46851;49.160;8.980;2024-02-04T03:10:03;1.15;;;1.05;;
60979;SDS011;46851;49.160;8.980;2024-02-04T03:12:29;1.55;;;1.45;;
60979;SDS011;46851;49.160;8.980;2024-02-04T03:14:55;2.55;;;1.58;;
60979;SDS011;46851;49.160;8.980;2024-02-04T03:17:21;2.03;;;1.30;;
60979;SDS011;46851;49.160;8.980;2024-02-04T03:19:48;2.70;;;1.63;;
60979;SDS011;46851;49.160;8.980;2024-02-04T03:22:16;1.70;;;1.10;;
60979;SDS011;46851;49.160;8.980;2024-02-04T03:24:42;1.88;;;1.58;;
60979;SDS011;46851;49.160;8.980;2024-02-04T03:27:08;1.80;;;1.17;;
60979;SDS011;46851;49.160;8.980;2024-02-04T03:29:34;1.27;;;1.17;;
60979;SDS011;46851;49.160;8.980;2024-02-04T03:32:01;1.48;;;1.20;;
60979;SDS011;46851;49.160;8.980;2024-02-04T03:34:27;1.80;;;1.40;;
60979;SDS011;46851;49.160;8.980;2024-02-04T03:36:53;1.85;;;1.10;;
60979;SDS011;46851;49.160;8.980;2024-02-04T03:39:20;1.88;;;1.20;;
60979;SDS011;46851;49.160;8.980;2024-02-04T03:41:46;1.58;;;1.20;;
60979;SDS011;46851;49.160;8.980;2024-02-04T03:44:12;1.27;;;1.15;;
60979;SDS011;46851;49.160;8.980;2024-02-04T03:46:38;1.40;;;1.30;;
60979;SDS011;46851;49.160;8.980;2024-02-04T03:49:06;1.55;;;1.23;;
60979;SDS011;46851;49.160;8.980;2024-02-04T03:51:32;1.48;;;1.20;;
60979;SDS011;46851;49.160;8.980;2024-02-04T03:53:58;1.70;;;1.23;;
60979;SDS011;46851;49.160;8.980;2024-02-04T03:56:24;1.38;;;1.23;;
60979;SDS011;46851;49.160;8.980;2024-02-04T03:58:50;2.03;;;1.48;;
60979;SDS011;46851;49.160;8.980;2024-02-04T04:01:16;1.33;;;1.10;;
60979;SDS011;46851;49.160;8.980;2024-02-04T04:03:42;1.35;;;1.13;;
60979;SDS011;46851;49.160;8.980;2024-02-04T04:06:09;1.67;;;1.23;;
60979;SDS011;46851;49.160;8.980;2024-02-04T04:08:35;2.38;;;1.20;;
60979;SDS011;46851;49.160;8.980;2024-02-04T04:11:01;1.52;;;1.30;;
60979;SDS011;46851;49.160;8.980;2024-02-04T04:13:27;2.58;;;1.38;;
60979;SDS011;46851;49.160;8.980;2024-02-04T04:15:53;1.45;;;1.35;;
60979;SDS011;46851;49.160;8.980;2024-02-04T04:18:19;3.70;;;1.20;;
60979;SDS011;46851;49.160;8.980;2024-02-04T04:20:45;1.95;;;1.27;;
60979;SDS011;46851;49.160;8.980;2024-02-04T04:23:12;1.35;;;1.25;;
60979;SDS011;46851;49.160;8.980;2024-02-04T04:25:38;2.70;;;1.40;;
60979;SDS011;46851;49.160;8.980;2024-02-04T04:28:04;1.67;;;1.45;;
60979;SDS011;46851;49.160;8.980;2024-02-04T04:30:30;1.67;;;1.35;;
60979;SDS011;46851;49.160;8.980;2024-02-04T04:32:56;2.08;;;1.67;;
60979;SDS011;46851;49.160;8.980;2024-02-04T04:35:23;1.75;;;1.20;;
60979;SDS011;46851;49.160;8.980;2024-02-04T04:37:50;1.55;;;1.20;;
60979;SDS011;46851;49.160;8.980;2024-02-04T04:40:16;1.52;;;1.42;;
60979;SDS011;46851;49.160;8.980;2024-02-04T04:42:42;1.83;;;1.42;;
60979;SDS011;46851;49.160;8.980;2024-02-04T04:45:08;1.33;;;1.23;;
60979;SDS011;46851;49.160;8.980;2024-02-04T04:47:34;1.65;;;1.33;;
60979;SDS011;46851;49.160;8.980;2024-02-04T04:50:00;1.38;;;1.20;;
60979;SDS011;46851;49.160;8.980;2024-02-04T04:52:26;1.85;;;1.27;;
60979;SDS011;46851;49.160;8.980;2024-02-04T04:54:52;3.10;;;1.60;;
60979;SDS011;46851;49.160;8.980;2024-02-04T04:57:18;2.10;;;1.50;;
60979;SDS011;46851;49.160;8.980;2024-02-04T04:59:44;1.75;;;1.10;;
60979;SDS011;46851;49.160;8.980;2024-02-04T05:02:10;1.70;;;1.25;;
60979;SDS011;46851;49.160;8.980;2024-02-04T05:04:36;1.33;;;1.23;;
60979;SDS011;46851;49.160;8.980;2024-02-04T05:07:02;1.58;;;1.30;;
60979;SDS011;46851;49.160;8.980;2024-02-04T05:09:28;2.85;;;1.50;;
60979;SDS011;46851;49.160;8.980;2024-02-04T05:11:54;3.88;;;1.40;;
60979;SDS011;46851;49.160;8.980;2024-02-04T05:14:20;1.92;;;1.30;;
60979;SDS011;46851;49.160;8.980;2024-02-04T05:16:46;2.88;;;1.40;;
60979;SDS011;46851;49.160;8.980;2024-02-04T05:19:12;2.08;;;1.50;;
60979;SDS011;46851;49.160;8.980;2024-02-04T05:21:39;2.13;;;1.30;;
60979;SDS011;46851;49.160;8.980;2024-02-04T05:24:05;1.52;;;1.40;;
60979;SDS011;46851;49.160;8.980;2024-02-04T05:26:31;1.77;;;1.48;;
60979;SDS011;46851;49.160;8.980;2024-02-04T05:28:57;1.42;;;1.33;;
60979;SDS011;46851;49.160;8.980;2024-02-04T05:31:23;1.33;;;1.20;;
60979;SDS011;46851;49.160;8.980;2024-02-04T05:33:51;1.60;;;1.27;;
60979;SDS011;46851;49.160;8.980;2024-02-04T05:36:17;1.40;;;1.20;;
60979;SDS011;46851;49.160;8.980;2024-02-04T05:38:44;1.33;;;1.20;;
60979;SDS011;46851;49.160;8.980;2024-02-04T05:41:11;1.73;;;1.27;;
60979;SDS011;46851;49.160;8.980;2024-02-04T05:43:37;1.38;;;1.27;;
60979;SDS011;46851;49.160;8.980;2024-02-04T05:46:03;1.33;;;1.20;;
60979;SDS011;46851;49.160;8.980;2024-02-04T05:48:29;2.25;;;1.10;;
60979;SDS011;46851;49.160;8.980;2024-02-04T05:50:55;1.10;;;1.00;;
60979;SDS011;46851;49.160;8.980;2024-02-04T05:53:21;2.17;;;1.33;;
60979;SDS011;46851;49.160;8.980;2024-02-04T05:55:47;1.98;;;1.20;;
60979;SDS011;46851;49.160;8.980;2024-02-04T05:58:13;2.17;;;1.15;;
60979;SDS011;46851;49.160;8.980;2024-02-04T06:00:39;1.20;;;1.10;;
60979;SDS011;46851;49.160;8.980;2024-02-04T06:03:06;2.25;;;1.10;;
60979;SDS011;46851;49.160;8.980;2024-02-04T06:05:32;2.17;;;1.42;;
60979;SDS011;46851;49.160;8.980;2024-02-04T06:07:58;1.70;;;1.40;;
60979;SDS011;46851;49.160;8.980;2024-02-04T06:10:24;1.50;;;1.13;;
60979;SDS011;46851;49.160;8.980;2024-02-04T06:12:50;1.10;;;1.00;;
60979;SDS011;46851;49.160;8.980;2024-02-04T06:15:16;1.20;;;1.05;;
60979;SDS011;46851;49.160;8.980;2024-02-04T06:17:42;1.60;;;1.20;;
60979;SDS011;46851;49.160;8.980;2024-02-04T06:20:08;1.88;;;1.30;;
60979;SDS011;46851;49.160;8.980;2024-02-04T06:22:35;1.13;;;1.00;;
60979;SDS011;46851;49.160;8.980;2024-02-04T06:25:02;1.70;;;1.33;;
60979;SDS011;46851;49.160;8.980;2024-02-04T06:27:28;1.85;;;1.25;;
60979;SDS011;46851;49.160;8.980;2024-02-04T06:29:55;1.90;;;1.50;;
60979;SDS011;46851;49.160;8.980;2024-02-04T06:32:21;2.35;;;1.42;;
60979;SDS011;46851;49.160;8.980;2024-02-04T06:34:47;2.25;;;1.15;;
60979;SDS011;46851;49.160;8.980;2024-02-04T06:37:13;1.40;;;1.30;;
60979;SDS011;46851;49.160;8.980;2024-02-04T06:39:39;1.30;;;1.10;;
60979;SDS011;46851;49.160;8.980;2024-02-04T06:42:05;1.40;;;1.13;;
60979;SDS011;46851;49.160;8.980;2024-02-04T06:44:31;2.17;;;1.30;;
60979;SDS011;46851;49.160;8.980;2024-02-04T06:46:57;1.55;;;1.13;;
60979;SDS011;46851;49.160;8.980;2024-02-04T06:49:23;1.55;;;1.20;;
60979;SDS011;46851;49.160;8.980;2024-02-04T06:51:49;1.55;;;1.20;;
60979;SDS011;46851;49.160;8.980;2024-02-04T06:54:16;3.22;;;1.30;;
60979;SDS011;46851;49.160;8.980;2024-02-04T06:56:42;2.63;;;1.20;;
60979;SDS011;46851;49.160;8.980;2024-02-04T06:59:08;1.58;;;1.30;;
60979;SDS011;46851;49.160;8.980;2024-02-04T07:01:34;1.30;;;1.20;;
60979;SDS011;46851;49.160;8.980;2024-02-04T07:04:00;1.27;;;1.10;;
60979;SDS011;46851;49.160;8.980;2024-02-04T07:06:26;2.90;;;1.30;;
60979;SDS011;46851;49.160;8.980;2024-02-04T07:08:52;1.85;;;1.02;;
60979;SDS011;46851;49.160;8.980;2024-02-04T07:11:18;2.40;;;1.30;;
60979;SDS011;46851;49.160;8.980;2024-02-04T07:13:44;1.90;;;1.15;;
60979;SDS011;46851;49.160;8.980;2024-02-04T07:16:10;2.72;;;1.05;;
60979;SDS011;46851;49.160;8.980;2024-02-04T07:18:36;1.95;;;1.13;;
60979;SDS011;46851;49.160;8.980;2024-02-04T07:21:02;1.35;;;1.02;;
60979;SDS011;46851;49.160;8.980;2024-02-04T07:23:28;3.35;;;1.67;;
60979;SDS011;46851;49.160;8.980;2024-02-04T07:25:54;1.17;;;0.90;;
60979;SDS011;46851;49.160;8.980;2024-02-04T07:28:20;1.00;;;0.90;;
60979;SDS011;46851;49.160;8.980;2024-02-04T07:30:47;1.58;;;1.10;;
60979;SDS011;46851;49.160;8.980;2024-02-04T07:33:13;2.67;;;1.20;;
60979;SDS011;46851;49.160;8.980;2024-02-04T07:35:39;0.80;;;0.80;;
60979;SDS011;46851;49.160;8.980;2024-02-04T07:38:05;2.25;;;0.90;;
60979;SDS011;46851;49.160;8.980;2024-02-04T07:40:31;1.85;;;0.90;;
60979;SDS011;46851;49.160;8.980;2024-02-04T07:42:57;1.23;;;1.00;;
60979;SDS011;46851;49.160;8.980;2024-02-04T07:45:23;1.00;;;0.90;;
60979;SDS011;46851;49.160;8.980;2024-02-04T07:47:49;1.10;;;1.00;;
60979;SDS011;46851;49.160;8.980;2024-02-04T07:50:15;3.75;;;2.55;;
60979;SDS011;46851;49.160;8.980;2024-02-04T07:52:41;2.83;;;1.08;;
60979;SDS011;46851;49.160;8.980;2024-02-04T07:55:07;2.13;;;0.90;;
60979;SDS011;46851;49.160;8.980;2024-02-04T07:57:33;1.95;;;1.30;;
60979;SDS011;46851;49.160;8.980;2024-02-04T07:59:59;1.05;;;0.93;;
60979;SDS011;46851;49.160;8.980;2024-02-04T08:02:28;4.57;;;1.00;;
60979;SDS011;46851;49.160;8.980;2024-02-04T08:04:54;2.30;;;0.82;;
60979;SDS011;46851;49.160;8.980;2024-02-04T08:07:20;1.35;;;1.10;;
60979;SDS011;46851;49.160;8.980;2024-02-04T08:09:46;2.47;;;1.00;;
60979;SDS011;46851;49.160;8.980;2024-02-04T08:12:12;4.40;;;1.20;;
60979;SDS011;46851;49.160;8.980;2024-02-04T08:14:38;1.30;;;1.00;;
60979;SDS011;46851;49.160;8.980;2024-02-04T08:17:04;1.92;;;1.23;;
60979;SDS011;46851;49.160;8.980;2024-02-04T08:19:30;2.05;;;1.17;;
60979;SDS011;46851;49.160;8.980;2024-02-04T08:21:56;1.30;;;1.20;;
60979;SDS011;46851;49.160;8.980;2024-02-04T08:24:23;1.55;;;1.15;;
60979;SDS011;46851;49.160;8.980;2024-02-04T08:26:49;2.58;;;1.75;;
60979;SDS011;46851;49.160;8.980;2024-02-04T08:29:15;0.80;;;0.80;;
60979;SDS011;46851;49.160;8.980;2024-02-04T08:31:41;2.67;;;1.63;;
60979;SDS011;46851;49.160;8.980;2024-02-04T08:34:07;1.52;;;1.02;;
60979;SDS011;46851;49.160;8.980;2024-02-04T08:36:34;2.47;;;1.35;;
60979;SDS011;46851;49.160;8.980;2024-02-04T08:39:00;0.93;;;0.80;;
60979;SDS011;46851;49.160;8.980;2024-02-04T08:41:26;1.00;;;0.80;;
60979;SDS011;46851;49.160;8.980;2024-02-04T08:43:52;4.85;;;2.15;;
60979;SDS011;46851;49.160;8.980;2024-02-04T08:46:18;0.73;;;0.73;;
60979;SDS011;46851;49.160;8.980;2024-02-04T08:48:43;4.28;;;0.90;;
60979;SDS011;46851;49.160;8.980;2024-02-04T08:51:10;1.00;;;0.80;;
60979;SDS011;46851;49.160;8.980;2024-02-04T08:53:37;1.20;;;1.05;;
60979;SDS011;46851;49.160;8.980;2024-02-04T08:56:03;1.55;;;0.82;;
60979;SDS011;46851;49.160;8.980;2024-02-04T08:58:29;3.78;;;1.00;;
60979;SDS011;46851;49.160;8.980;2024-02-04T09:00:55;1.60;;;1.20;;
60979;SDS011;46851;49.160;8.980;2024-02-04T09:03:21;1.15;;;0.82;;
60979;SDS011;46851;49.160;8.980;2024-02-04T09:05:48;2.90;;;1.05;;
60979;SDS011;46851;49.160;8.980;2024-02-04T09:08:14;1.50;;;1.10;;
60979;SDS011;46851;49.160;8.980;2024-02-04T09:10:40;1.20;;;1.00;;
60979;SDS011;46851;49.160;8.980;2024-02-04T09:13:06;2.17;;;0.77;;
60979;SDS011;46851;49.160;8.980;2024-02-04T09:15:32;0.63;;;0.60;;
60979;SDS011;46851;49.160;8.980;2024-02-04T09:17:58;1.42;;;0.80;;
60979;SDS011;46851;49.160;8.980;2024-02-04T09:20:24;0.93;;;0.70;;
60979;SDS011;46851;49.160;8.980;2024-02-04T09:22:50;2.45;;;1.50;;
60979;SDS011;46851;49.160;8.980;2024-02-04T09:25:16;3.65;;;1.00;;
60979;SDS011;46851;49.160;8.980;2024-02-04T09:27:42;2.28;;;0.80;;
60979;SDS011;46851;49.160;8.980;2024-02-04T09:30:08;1.70;;;0.95;;
60979;SDS011;46851;49.160;8.980;2024-02-04T09:32:35;1.55;;;1.08;;
60979;SDS011;46851;49.160;8.980;2024-02-04T09:35:01;1.75;;;0.80;;
60979;SDS011;46851;49.160;8.980;2024-02-04T09:37:27;2.53;;;1.40;;
60979;SDS011;46851;49.160;8.980;2024-02-04T09:39:53;2.13;;;1.05;;
60979;SDS011;46851;49.160;8.980;2024-02-04T09:42:19;0.63;;;0.63;;
60979;SDS011;46851;49.160;8.980;2024-02-04T09:44:49;0.80;;;0.80;;
60979;SDS011;46851;49.160;8.980;2024-02-04T09:47:15;0.80;;;0.70;;
60979;SDS011;46851;49.160;8.980;2024-02-04T09:49:42;0.80;;;0.70;;
60979;SDS011;46851;49.160;8.980;2024-02-04T09:52:08;0.70;;;0.68;;
60979;SDS011;46851;49.160;8.980;2024-02-04T09:54:45;1.67;;;1.00;;
60979;SDS011;46851;49.160;8.980;2024-02-04T09:57:11;2.40;;;1.00;;
60979;SDS011;46851;49.160;8.980;2024-02-04T09:59:38;2.03;;;0.90;;
60979;SDS011;46851;49.160;8.980;2024-02-04T10:02:04;0.98;;;0.70;;
60979;SDS011;46851;49.160;8.980;2024-02-04T10:04:30;1.40;;;0.77;;
60979;SDS011;46851;49.160;8.980;2024-02-04T10:06:56;2.55;;;0.70;;
60979;SDS011;46851;49.160;8.980;2024-02-04T10:09:22;14.00;;;0.95;;
60979;SDS011;46851;49.160;8.980;2024-02-04T10:11:48;6.28;;;0.88;;
60979;SDS011;46851;49.160;8.980;2024-02-04T10:26:08;2.03;;;0.52;;
60979;SDS011;46851;49.160;8.980;2024-02-04T10:28:39;0.70;;;0.45;;
60979;SDS011;46851;49.160;8.980;2024-02-04T10:31:08;0.95;;;0.60;;
60979;SDS011;46851;49.160;8.980;2024-02-04T10:33:35;0.63;;;0.50;;
60979;SDS011;46851;49.160;8.980;2024-02-04T10:36:01;0.77;;;0.60;;
60979;SDS011;46851;49.160;8.980;2024-02-04T10:38:27;2.47;;;0.63;;
60979;SDS011;46851;49.160;8.980;2024-02-04T10:40:53;1.23;;;0.73;;
60979;SDS011;46851;49.160;8.980;2024-02-04T10:43:20;0.40;;;0.40;;
60979;SDS011;46851;49.160;8.980;2024-02-04T10:45:47;5.53;;;0.63;;
60979;SDS011;46851;49.160;8.980;2024-02-04T10:48:18;0.68;;;0.50;;
60979;SDS011;46851;49.160;8.980;2024-02-04T10:50:46;2.55;;;1.65;;
60979;SDS011;46851;49.160;8.980;2024-02-04T10:53:14;0.47;;;0.40;;
60979;SDS011;46851;49.160;8.980;2024-02-04T10:55:43;1.38;;;0.80;;
60979;SDS011;46851;49.160;8.980;2024-02-04T10:58:12;0.68;;;0.60;;
60979;SDS011;46851;49.160;8.980;2024-02-04T11:00:39;0.88;;;0.50;;
60979;SDS011;46851;49.160;8.980;2024-02-04T11:03:05;0.60;;;0.55;;
60979;SDS011;46851;49.160;8.980;2024-02-04T11:05:32;0.65;;;0.65;;
60979;SDS011;46851;49.160;8.980;2024-02-04T11:08:00;4.32;;;0.95;;
60979;SDS011;46851;49.160;8.980;2024-02-04T11:10:28;1.50;;;0.57;;
60979;SDS011;46851;49.160;8.980;2024-02-04T11:12:55;0.80;;;0.50;;
60979;SDS011;46851;49.160;8.980;2024-02-04T11:15:23;2.47;;;0.65;;
60979;SDS011;46851;49.160;8.980;2024-02-04T11:25:48;0.60;;;0.60;;
60979;SDS011;46851;49.160;8.980;2024-02-04T11:28:15;0.88;;;0.63;;
60979;SDS011;46851;49.160;8.980;2024-02-04T11:30:42;0.88;;;0.50;;
60979;SDS011;46851;49.160;8.980;2024-02-04T11:33:10;2.45;;;0.70;;
60979;SDS011;46851;49.160;8.980;2024-02-04T11:35:36;1.83;;;0.70;;
60979;SDS011;46851;49.160;8.980;2024-02-04T11:38:03;2.63;;;0.90;;
60979;SDS011;46851;49.160;8.980;2024-02-04T11:40:35;2.10;;;1.20;;
60979;SDS011;46851;49.160;8.980;2024-02-04T11:45:30;0.70;;;0.70;;
60979;SDS011;46851;49.160;8.980;2024-02-04T11:48:00;0.85;;;0.60;;
60979;SDS011;46851;49.160;8.980;2024-02-04T11:53:00;1.83;;;0.90;;
60979;SDS011;46851;49.160;8.980;2024-02-04T11:55:26;4.40;;;1.25;;
60979;SDS011;46851;49.160;8.980;2024-02-04T11:57:53;1.25;;;0.80;;
60979;SDS011;46851;49.160;8.980;2024-02-04T12:00:20;0.95;;;0.75;;
60979;SDS011;46851;49.160;8.980;2024-02-04T12:02:46;1.10;;;0.70;;
60979;SDS011;46851;49.160;8.980;2024-02-04T12:05:12;1.05;;;0.70;;
60979;SDS011;46851;49.160;8.980;2024-02-04T12:07:39;0.52;;;0.52;;
60979;SDS011;46851;49.160;8.980;2024-02-04T12:10:06;0.77;;;0.68;;
60979;SDS011;46851;49.160;8.980;2024-02-04T12:12:32;1.20;;;0.90;;
60979;SDS011;46851;49.160;8.980;2024-02-04T12:14:58;0.88;;;0.88;;
60979;SDS011;46851;49.160;8.980;2024-02-04T12:17:25;1.33;;;1.10;;
60979;SDS011;46851;49.160;8.980;2024-02-04T12:19:51;1.30;;;1.20;;
60979;SDS011;46851;49.160;8.980;2024-02-04T12:22:18;0.98;;;0.90;;
60979;SDS011;46851;49.160;8.980;2024-02-04T12:24:44;4.15;;;1.05;;
60979;SDS011;46851;49.160;8.980;2024-02-04T12:27:11;2.85;;;1.40;;
60979;SDS011;46851;49.160;8.980;2024-02-04T12:29:37;3.58;;;1.90;;
60979;SDS011;46851;49.160;8.980;2024-02-04T12:32:03;1.13;;;1.00;;
60979;SDS011;46851;49.160;8.980;2024-02-04T12:34:30;3.85;;;2.30;;
60979;SDS011;46851;49.160;8.980;2024-02-04T12:37:01;2.70;;;2.40;;
60979;SDS011;46851;49.160;8.980;2024-02-04T12:39:27;2.05;;;1.20;;
60979;SDS011;46851;49.160;8.980;2024-02-04T12:41:54;2.70;;;1.50;;
60979;SDS011;46851;49.160;8.980;2024-02-04T12:44:20;4.10;;;2.08;;
60979;SDS011;46851;49.160;8.980;2024-02-04T12:46:49;4.47;;;1.40;;
60979;SDS011;46851;49.160;8.980;2024-02-04T12:51:42;1.80;;;1.50;;
60979;SDS011;46851;49.160;8.980;2024-02-04T12:54:11;1.42;;;0.90;;
60979;SDS011;46851;49.160;8.980;2024-02-04T12:59:10;1.17;;;1.08;;
60979;SDS011;46851;49.160;8.980;2024-02-04T13:01:37;1.00;;;0.90;;
60979;SDS011;46851;49.160;8.980;2024-02-04T13:04:03;1.75;;;1.10;;
60979;SDS011;46851;49.160;8.980;2024-02-04T13:06:30;1.10;;;0.85;;
60979;SDS011;46851;49.160;8.980;2024-02-04T13:08:56;1.30;;;1.17;;
60979;SDS011;46851;49.160;8.980;2024-02-04T13:11:23;1.38;;;1.15;;
60979;SDS011;46851;49.160;8.980;2024-02-04T13:13:49;2.95;;;0.95;;
60979;SDS011;46851;49.160;8.980;2024-02-04T13:16:16;1.55;;;1.10;;
60979;SDS011;46851;49.160;8.980;2024-02-04T13:18:44;0.80;;;0.80;;
60979;SDS011;46851;49.160;8.980;2024-02-04T13:21:10;1.98;;;0.90;;
60979;SDS011;46851;49.160;8.980;2024-02-04T13:23:36;1.85;;;1.00;;
60979;SDS011;46851;49.160;8.980;2024-02-04T13:26:02;3.63;;;1.00;;
60979;SDS011;46851;49.160;8.980;2024-02-04T13:28:28;0.73;;;0.70;;
60979;SDS011;46851;49.160;8.980;2024-02-04T13:30:54;1.85;;;0.95;;
60979;SDS011;46851;49.160;8.980;2024-02-04T13:33:20;1.02;;;0.82;;
60979;SDS011;46851;49.160;8.980;2024-02-04T13:35:46;1.10;;;0.88;;
60979;SDS011;46851;49.160;8.980;2024-02-04T13:38:13;1.38;;;1.00;;
60979;SDS011;46851;49.160;8.980;2024-02-04T13:40:39;1.00;;;0.90;;
60979;SDS011;46851;49.160;8.980;2024-02-04T13:43:06;0.90;;;0.80;;
60979;SDS011;46851;49.160;8.980;2024-02-04T13:45:31;0.93;;;0.90;;
60979;SDS011;46851;49.160;8.980;2024-02-04T13:47:58;1.30;;;1.08;;
60979;SDS011;46851;49.160;8.980;2024-02-04T13:50:24;2.00;;;1.23;;
60979;SDS011;46851;49.160;8.980;2024-02-04T13:52:49;1.20;;;0.98;;
60979;SDS011;46851;49.160;8.980;2024-02-04T13:55:16;3.58;;;1.20;;
60979;SDS011;46851;49.160;8.980;2024-02-04T13:57:42;1.02;;;0.90;;
60979;SDS011;46851;49.160;8.980;2024-02-04T14:00:08;1.70;;;1.02;;
60979;SDS011;46851;49.160;8.980;2024-02-04T14:02:34;4.15;;;1.00;;
60979;SDS011;46851;49.160;8.980;2024-02-04T14:05:00;1.45;;;1.15;;
60979;SDS011;46851;49.160;8.980;2024-02-04T14:07:26;1.35;;;1.25;;
60979;SDS011;46851;49.160;8.980;2024-02-04T14:09:53;0.90;;;0.90;;
60979;SDS011;46851;49.160;8.980;2024-02-04T14:12:19;5.40;;;0.90;;
60979;SDS011;46851;49.160;8.980;2024-02-04T14:14:45;3.15;;;1.08;;
60979;SDS011;46851;49.160;8.980;2024-02-04T14:17:11;2.70;;;1.15;;
60979;SDS011;46851;49.160;8.980;2024-02-04T14:19:37;2.78;;;1.00;;
60979;SDS011;46851;49.160;8.980;2024-02-04T14:22:03;1.83;;;1.20;;
60979;SDS011;46851;49.160;8.980;2024-02-04T14:24:29;2.28;;;1.10;;
60979;SDS011;46851;49.160;8.980;2024-02-04T14:26:56;2.13;;;1.50;;
60979;SDS011;46851;49.160;8.980;2024-02-04T14:29:23;3.53;;;1.55;;
60979;SDS011;46851;49.160;8.980;2024-02-04T14:31:50;2.70;;;1.27;;
60979;SDS011;46851;49.160;8.980;2024-02-04T14:34:16;1.17;;;1.00;;
60979;SDS011;46851;49.160;8.980;2024-02-04T14:36:42;2.95;;;1.15;;
60979;SDS011;46851;49.160;8.980;2024-02-04T14:39:08;4.00;;;1.40;;
60979;SDS011;46851;49.160;8.980;2024-02-04T14:41:37;2.33;;;1.42;;
60979;SDS011;46851;49.160;8.980;2024-02-04T14:44:03;2.37;;;1.20;;
60979;SDS011;46851;49.160;8.980;2024-02-04T14:46:29;2.05;;;1.50;;
60979;SDS011;46851;49.160;8.980;2024-02-04T14:48:55;1.33;;;1.20;;
60979;SDS011;46851;49.160;8.980;2024-02-04T14:51:21;2.15;;;1.50;;
60979;SDS011;46851;49.160;8.980;2024-02-04T14:53:47;1.30;;;1.20;;
60979;SDS011;46851;49.160;8.980;2024-02-04T14:56:13;3.40;;;1.20;;
60979;SDS011;46851;49.160;8.980;2024-02-04T14:58:39;1.70;;;1.30;;
60979;SDS011;46851;49.160;8.980;2024-02-04T15:01:07;2.65;;;1.67;;
60979;SDS011;46851;49.160;8.980;2024-02-04T15:03:34;2.70;;;1.55;;
60979;SDS011;46851;49.160;8.980;2024-02-04T15:06:00;2.35;;;1.38;;
60979;SDS011;46851;49.160;8.980;2024-02-04T15:08:26;1.20;;;1.10;;
60979;SDS011;46851;49.160;8.980;2024-02-04T15:10:52;1.60;;;1.50;;
60979;SDS011;46851;49.160;8.980;2024-02-04T15:13:18;2.22;;;1.38;;
60979;SDS011;46851;49.160;8.980;2024-02-04T15:15:44;2.38;;;1.13;;
60979;SDS011;46851;49.160;8.980;2024-02-04T15:18:10;1.30;;;1.10;;
60979;SDS011;46851;49.160;8.980;2024-02-04T15:20:37;1.58;;;1.00;;
60979;SDS011;46851;49.160;8.980;2024-02-04T15:23:03;2.22;;;1.20;;
60979;SDS011;46851;49.160;8.980;2024-02-04T15:25:29;1.20;;;1.10;;